createdAt,value
2018-08-04T00:01:48.546Z,101993.73
2018-08-04T00:04:17.601Z,101990.23
2018-08-04T00:06:46.575Z,101982.46
2018-08-04T00:09:15.586Z,101984.73
2018-08-04T00:11:44.617Z,101990.08
2018-08-04T00:14:13.785Z,101989.47
2018-08-04T00:16:42.774Z,101995.11
2018-08-04T00:19:11.770Z,101993.37
2018-08-04T00:21:40.739Z,101980.58
2018-08-04T00:24:09.827Z,101978.16
2018-08-04T00:26:38.807Z,101983.17
2018-08-04T00:29:07.845Z,101986.09
2018-08-04T00:31:36.831Z,101982.22
2018-08-04T00:34:06.047Z,101983.09
2018-08-04T00:36:35.055Z,101974.95
2018-08-04T00:39:05.091Z,101977.17
2018-08-04T00:41:34.159Z,101970.02
2018-08-04T00:44:03.272Z,101969.55
2018-08-04T00:46:32.352Z,101976.90
2018-08-04T00:49:01.462Z,101979.69
2018-08-04T00:51:30.438Z,101974.09
2018-08-04T00:53:59.431Z,101963.13
2018-08-04T00:56:28.411Z,101967.19
2018-08-04T00:58:57.414Z,101969.41
2018-08-04T01:01:26.375Z,101968.05
2018-08-04T01:03:55.394Z,101972.03
2018-08-04T01:06:24.622Z,101974.26
2018-08-04T01:08:59.435Z,101969.03
2018-08-04T01:11:28.522Z,101968.46
2018-08-04T01:13:57.671Z,101963.41
2018-08-04T01:16:26.826Z,101965.05
2018-08-04T01:18:55.863Z,101958.27
2018-08-04T01:21:24.894Z,101960.11
2018-08-04T01:23:53.891Z,101967.76
2018-08-04T01:26:22.895Z,101966.97
2018-08-04T01:28:51.899Z,101965.03
2018-08-04T01:31:20.875Z,101967.38
2018-08-04T01:33:49.903Z,101966.97
2018-08-04T01:36:18.847Z,101956.53
2018-08-04T01:38:47.869Z,101959.45
2018-08-04T01:41:16.907Z,101952.75
2018-08-04T01:43:46.103Z,101958.27
2018-08-04T01:46:15.105Z,101967.76
2018-08-04T01:48:44.131Z,101960.61
2018-08-04T01:51:13.099Z,101971.84
2018-08-04T01:53:42.157Z,101965.39
2018-08-04T01:56:11.331Z,101975.83
2018-08-04T01:58:40.315Z,101972.13
2018-08-04T02:01:09.312Z,101979.80
2018-08-04T02:03:38.301Z,101983.47
2018-08-04T02:06:11.009Z,101981.05
2018-08-04T02:08:40.623Z,101970.98
2018-08-04T02:11:09.673Z,101976.98
2018-08-04T02:13:38.693Z,101966.63
2018-08-04T02:16:07.666Z,101968.17
2018-08-04T02:18:36.717Z,101963.33
2018-08-04T02:21:05.682Z,101963.05
2018-08-04T02:23:34.747Z,101960.42
2018-08-04T02:26:03.756Z,101965.19
2018-08-04T02:28:32.769Z,101957.05
2018-08-04T02:31:01.867Z,101950.06
2018-08-04T02:33:30.961Z,101946.57
2018-08-04T02:35:59.926Z,101937.98
2018-08-04T02:38:28.916Z,101938.72
2018-08-04T02:40:57.920Z,101945.78
2018-08-04T02:43:26.899Z,101936.50
2018-08-04T02:45:55.950Z,101940.56
2018-08-04T02:48:24.983Z,101940.77
2018-08-04T02:50:54.021Z,101941.27
2018-08-04T02:53:22.985Z,101939.63
2018-08-04T02:55:52.086Z,101941.43
2018-08-04T02:58:21.123Z,101947.63
2018-08-04T03:00:50.153Z,101944.92
2018-08-04T03:03:19.251Z,101939.79
2018-08-04T03:05:48.277Z,101933.34
2018-08-04T03:08:17.261Z,101943.29
2018-08-04T03:10:46.270Z,101936.05
2018-08-04T03:13:15.347Z,101939.05
2018-08-04T03:15:44.447Z,101939.72
2018-08-04T03:18:13.455Z,101934.87
2018-08-04T03:20:42.412Z,101946.41
2018-08-04T03:23:12.271Z,101941.56
2018-08-04T03:25:41.351Z,101942.05
2018-08-04T03:28:10.335Z,101943.41
2018-08-04T03:30:39.325Z,101945.43
2018-08-04T03:33:08.359Z,101946.59
2018-08-04T03:35:37.431Z,101957.05
2018-08-04T03:38:06.487Z,101949.50
2018-08-04T03:40:35.507Z,101958.30
2018-08-04T03:43:04.642Z,101957.14
2018-08-04T03:45:33.712Z,101961.02
2018-08-04T03:48:02.671Z,101956.45
2018-08-04T03:50:31.992Z,101957.52
2018-08-04T03:53:00.951Z,101960.31
2018-08-04T03:55:29.953Z,101952.96
2018-08-04T03:57:58.995Z,101957.52
2018-08-04T04:00:27.969Z,101952.39
2018-08-04T04:02:57.872Z,101952.80
2018-08-04T04:05:26.855Z,101953.74
2018-08-04T04:07:55.867Z,101957.73
2018-08-04T04:10:24.979Z,101958.22
2018-08-04T04:12:53.930Z,101962.86
2018-08-04T04:15:22.923Z,101961.50
2018-08-04T04:17:51.931Z,101959.08
2018-08-04T04:20:21.371Z,101959.08
2018-08-04T04:22:50.690Z,101962.86
2018-08-04T04:25:19.731Z,101962.37
2018-08-04T04:27:48.751Z,101960.92
2018-08-04T04:30:17.807Z,101962.37
2018-08-04T04:32:47.009Z,101951.81
2018-08-04T04:35:16.007Z,101959.57
2018-08-04T04:37:44.991Z,101951.23
2018-08-04T04:40:14.020Z,101954.93
2018-08-04T04:42:43.011Z,101959.28
2018-08-04T04:45:12.003Z,101964.09
2018-08-04T04:47:41.053Z,101963.44
2018-08-04T04:50:10.013Z,101964.88
2018-08-04T04:52:39.055Z,101958.59
2018-08-04T04:55:08.056Z,101965.45
2018-08-04T04:57:37.024Z,101971.28
2018-08-04T05:00:06.311Z,101970.50
2018-08-04T05:02:35.373Z,101970.50
2018-08-04T05:05:05.203Z,101963.64
2018-08-04T05:07:34.130Z,101974.86
2018-08-04T05:10:03.278Z,101977.48
2018-08-04T05:12:32.298Z,101981.75
2018-08-04T05:15:01.336Z,101983.97
2018-08-04T05:17:30.295Z,101977.69
2018-08-04T05:19:59.280Z,101981.66
2018-08-04T05:22:28.310Z,101983.30
2018-08-04T05:24:57.406Z,101986.48
2018-08-04T05:27:26.516Z,101978.83
2018-08-04T05:29:55.496Z,101979.70
2018-08-04T05:32:24.716Z,101985.81
2018-08-04T05:34:53.698Z,101995.02
2018-08-04T05:37:22.704Z,101997.80
2018-08-04T05:39:51.870Z,102000.60
2018-08-04T05:42:20.911Z,102009.22
2018-08-04T05:44:49.864Z,102004.70
2018-08-04T05:47:18.954Z,102008.16
2018-08-04T05:49:47.958Z,102010.86
2018-08-04T05:52:17.064Z,102006.05
2018-08-04T05:54:46.079Z,102009.50
2018-08-04T05:57:15.054Z,102010.19
2018-08-04T05:59:44.036Z,102017.25
2018-08-04T06:02:13.025Z,102009.13
2018-08-04T06:04:42.014Z,102005.14
2018-08-04T06:07:11.130Z,102012.81
2018-08-04T06:09:40.094Z,102010.85
2018-08-04T06:12:09.077Z,102013.77
2018-08-04T06:14:38.092Z,102012.34
2018-08-04T06:17:07.122Z,102016.28
2018-08-04T06:19:36.102Z,102016.69
2018-08-04T06:22:05.133Z,102014.06
2018-08-04T06:24:34.366Z,102012.52
2018-08-04T06:27:03.478Z,102014.18
2018-08-04T06:29:32.454Z,102020.34
2018-08-04T06:32:01.466Z,102025.88
2018-08-04T06:34:30.552Z,102022.38
2018-08-04T06:36:59.606Z,102022.87
2018-08-04T06:39:28.651Z,102025.09
2018-08-04T06:41:57.830Z,102028.39
2018-08-04T06:44:26.887Z,102028.02
2018-08-04T06:46:56.068Z,102025.00
2018-08-04T06:49:25.127Z,102025.12
2018-08-04T06:51:54.102Z,102029.20
2018-08-04T06:54:23.184Z,102032.01
2018-08-04T06:56:52.216Z,102036.65
2018-08-04T06:59:21.336Z,102031.23
2018-08-04T07:01:50.401Z,102031.35
2018-08-04T07:04:19.524Z,102038.05
2018-08-04T07:06:48.524Z,102030.95
2018-08-04T07:09:17.478Z,102033.28
2018-08-04T07:11:47.522Z,102041.50
2018-08-04T07:14:16.532Z,102038.70
2018-08-04T07:16:45.593Z,102032.59
2018-08-04T07:19:14.675Z,102035.42
2018-08-04T07:21:43.912Z,102034.52
2018-08-04T07:24:12.876Z,102036.94
2018-08-04T07:26:41.927Z,102043.22
2018-08-04T07:29:10.981Z,102039.51
2018-08-04T07:31:39.958Z,102046.80
2018-08-04T07:34:08.942Z,102044.86
2018-08-04T07:36:38.258Z,102051.36
2018-08-04T07:39:08.539Z,102053.86
2018-08-04T07:41:38.258Z,102056.48
2018-08-04T07:44:07.320Z,102060.63
2018-08-04T07:46:36.968Z,102067.12
2018-08-04T07:49:06.114Z,102066.05
2018-08-04T07:51:35.320Z,102066.61
2018-08-04T07:54:04.282Z,102062.04
2018-08-04T07:56:33.252Z,102069.02
2018-08-04T07:59:03.266Z,102056.18
2018-08-04T08:01:32.282Z,102059.67
2018-08-04T08:04:01.322Z,102061.71
2018-08-04T08:06:30.383Z,102063.72
2018-08-04T08:09:01.152Z,102062.05
2018-08-04T08:11:30.114Z,102058.07
2018-08-04T08:13:59.092Z,102054.09
2018-08-04T08:16:28.078Z,102060.97
2018-08-04T08:18:57.144Z,102064.06
2018-08-04T08:21:26.363Z,102071.63
2018-08-04T08:23:55.639Z,102069.09
2018-08-04T08:26:24.682Z,102076.17
2018-08-04T08:28:53.663Z,102076.27
2018-08-04T08:31:22.837Z,102069.69
2018-08-04T08:33:51.967Z,102071.91
2018-08-04T08:36:20.966Z,102066.11
2018-08-04T08:38:50.074Z,102070.83
2018-08-04T08:41:19.080Z,102067.52
2018-08-04T08:43:48.073Z,102068.17
2018-08-04T08:46:17.067Z,102069.66
2018-08-04T08:48:46.265Z,102063.23
2018-08-04T08:51:15.215Z,102069.38
2018-08-04T08:53:44.385Z,102070.24
2018-08-04T08:56:13.527Z,102064.37
2018-08-04T08:58:42.501Z,102060.79
2018-08-04T09:01:11.511Z,102067.77
2018-08-04T09:03:40.629Z,102076.02
2018-08-04T09:06:09.594Z,102073.57
2018-08-04T09:08:38.631Z,102066.77
2018-08-04T09:11:07.791Z,102079.00
2018-08-04T09:13:37.819Z,102077.06
2018-08-04T09:16:06.915Z,102075.98
2018-08-04T09:18:35.886Z,102074.47
2018-08-04T09:21:04.884Z,102070.17
2018-08-04T09:23:33.859Z,102075.88
2018-08-04T09:26:02.887Z,102072.17
2018-08-04T09:28:31.878Z,102068.38
2018-08-04T09:31:00.887Z,102071.95
2018-08-04T09:33:29.988Z,102072.84
2018-08-04T09:35:58.968Z,102068.64
2018-08-04T09:38:27.942Z,102064.47
2018-08-04T09:40:57.048Z,102070.95
2018-08-04T09:43:26.135Z,102062.39
2018-08-04T09:45:55.115Z,102064.52
2018-08-04T09:48:24.107Z,102062.58
2018-08-04T09:50:53.361Z,102062.58
2018-08-04T09:53:22.419Z,102069.19
2018-08-04T09:55:51.528Z,102070.19
2018-08-04T09:58:20.530Z,102070.19
2018-08-04T10:01:58.039Z,102075.18
2018-08-04T10:04:27.040Z,102076.77
2018-08-04T10:06:56.011Z,102078.13
2018-08-04T10:09:25.088Z,102071.81
2018-08-04T10:11:54.103Z,102076.27
2018-08-04T10:14:23.095Z,102084.23
2018-08-04T10:16:52.095Z,102078.80
2018-08-04T10:19:21.079Z,102081.88
2018-08-04T10:21:50.158Z,102083.52
2018-08-04T10:24:19.159Z,102080.84
2018-08-04T10:26:48.159Z,102079.17
2018-08-04T10:29:17.231Z,102077.91
2018-08-04T10:31:46.255Z,102082.88
2018-08-04T10:34:15.227Z,102078.31
2018-08-04T10:36:44.732Z,102075.69
2018-08-04T10:39:13.731Z,102080.75
2018-08-04T10:41:42.713Z,102076.27
2018-08-04T10:44:11.719Z,102074.05
2018-08-04T10:46:40.875Z,102080.16
2018-08-04T10:49:09.936Z,102079.67
2018-08-04T10:51:38.895Z,102081.89
2018-08-04T10:54:08.225Z,102083.75
2018-08-04T10:56:37.283Z,102076.36
2018-08-04T10:59:06.867Z,102080.21
2018-08-04T11:01:36.027Z,102082.87
2018-08-04T11:04:05.006Z,102079.53
2018-08-04T11:06:33.995Z,102087.69
2018-08-04T11:09:03.256Z,102093.08
2018-08-04T11:11:32.285Z,102092.98
2018-08-04T11:14:01.379Z,102094.94
2018-08-04T11:16:30.376Z,102088.03
2018-08-04T11:18:59.376Z,102100.05
2018-08-04T11:21:28.572Z,102096.02
2018-08-04T11:23:57.655Z,102094.43
2018-08-04T11:26:26.748Z,102092.53
2018-08-04T11:28:55.848Z,102093.63
2018-08-04T11:31:24.964Z,102088.08
2018-08-04T11:33:54.099Z,102098.24
2018-08-04T11:36:23.147Z,102096.61
2018-08-04T11:38:52.123Z,102091.70
2018-08-04T11:41:21.111Z,102098.24
2018-08-04T11:43:50.161Z,102087.95
2018-08-04T11:46:19.134Z,102092.53
2018-08-04T11:48:48.113Z,102088.72
2018-08-04T11:51:17.199Z,102089.81
2018-08-04T11:53:46.195Z,102098.09
2018-08-04T11:56:15.415Z,102093.30
2018-08-04T11:58:44.475Z,102086.45
2018-08-04T12:01:13.478Z,102086.05
2018-08-04T12:03:42.536Z,102088.94
2018-08-04T12:06:11.554Z,102088.17
2018-08-04T12:08:40.549Z,102088.08
2018-08-04T12:11:09.716Z,102095.42
2018-08-04T12:13:38.882Z,102091.07
2018-08-04T12:16:07.838Z,102106.13
2018-08-04T12:18:36.827Z,102100.05
2018-08-04T12:21:05.919Z,102092.53
2018-08-04T12:23:34.927Z,102093.20
2018-08-04T12:26:03.919Z,102086.59
2018-08-04T12:28:32.912Z,102084.27
2018-08-04T12:31:01.942Z,102083.27
2018-08-04T12:33:30.928Z,102082.91
2018-08-04T12:35:59.923Z,102086.59
2018-08-04T12:38:28.904Z,102090.63
2018-08-04T12:40:58.005Z,102088.89
2018-08-04T12:43:27.011Z,102085.41
2018-08-04T12:45:56.077Z,102094.37
2018-08-04T12:48:28.722Z,102088.39
2018-08-04T12:50:59.444Z,102092.61
2018-08-04T12:53:28.622Z,102097.92
2018-08-04T12:55:58.371Z,102083.81
2018-08-04T12:58:27.514Z,102091.02
2018-08-04T13:00:56.705Z,102080.77
2018-08-04T13:03:25.695Z,102085.34
2018-08-04T13:05:54.713Z,102088.39
2018-08-04T13:08:23.787Z,102087.09
2018-08-04T13:10:52.779Z,102087.09
2018-08-04T13:13:21.773Z,102088.38
2018-08-04T13:15:50.949Z,102085.75
2018-08-04T13:18:20.059Z,102075.69
2018-08-04T13:20:49.156Z,102076.63
2018-08-04T13:23:18.233Z,102074.50
2018-08-04T13:25:47.287Z,102075.73
2018-08-04T13:28:16.327Z,102078.44
2018-08-04T13:30:45.320Z,102074.30
2018-08-04T13:33:14.459Z,102080.38
2018-08-04T13:35:43.841Z,102081.16
2018-08-04T13:38:12.815Z,102079.56
2018-08-04T13:40:41.916Z,102076.10
2018-08-04T13:43:11.020Z,102084.81
2018-08-04T13:45:40.008Z,102087.34
2018-08-04T13:48:08.994Z,102085.77
2018-08-04T13:50:38.062Z,102090.17
2018-08-04T13:53:07.201Z,102088.45
2018-08-04T13:55:36.308Z,102087.09
2018-08-04T13:58:05.479Z,102095.19
2018-08-04T14:00:34.482Z,102096.48
2018-08-04T14:03:03.564Z,102100.08
2018-08-04T14:05:32.663Z,102095.47
2018-08-04T14:08:01.780Z,102109.00
2018-08-04T14:10:30.765Z,102103.75
2018-08-04T14:12:59.865Z,102112.18
2018-08-04T14:15:28.969Z,102104.64
2018-08-04T14:17:57.940Z,102106.62
2018-08-04T14:20:26.916Z,102120.30
2018-08-04T14:22:56.071Z,102122.14
2018-08-04T14:25:25.256Z,102124.42
2018-08-04T14:27:54.234Z,102140.61
2018-08-04T14:30:23.329Z,102135.31
2018-08-04T14:32:52.380Z,102156.38
2018-08-04T14:35:21.410Z,102149.16
2018-08-04T14:37:50.449Z,102147.42
2018-08-04T14:40:19.446Z,102145.69
2018-08-04T14:42:48.498Z,102147.12
2018-08-04T14:45:17.671Z,102145.98
2018-08-04T14:47:46.676Z,102153.43
2018-08-04T14:50:15.937Z,102151.41
2018-08-04T14:52:44.989Z,102144.61
2018-08-04T14:55:13.987Z,102153.33
2018-08-04T14:57:42.992Z,102153.33
2018-08-04T15:00:11.946Z,102154.38
2018-08-04T15:02:41.059Z,102151.03
2018-08-04T15:05:10.040Z,102171.34
2018-08-04T15:07:39.070Z,102152.88
2018-08-04T15:10:08.205Z,102148.51
2018-08-04T15:12:37.399Z,102150.11
2018-08-04T15:15:07.028Z,102155.43
2018-08-04T15:17:36.048Z,102154.72
2018-08-04T15:20:05.459Z,102152.83
2018-08-04T15:22:34.460Z,102156.13
2018-08-04T15:25:03.468Z,102169.28
2018-08-04T15:27:33.224Z,102151.52
2018-08-04T15:30:02.456Z,102148.24
2018-08-04T15:32:31.494Z,102158.48
2018-08-04T15:35:00.924Z,102158.16
2018-08-04T15:37:29.945Z,102165.94
2018-08-04T15:39:58.959Z,102161.87
2018-08-04T15:42:28.142Z,102174.38
2018-08-04T15:44:57.175Z,102169.63
2018-08-04T15:47:26.143Z,102170.50
2018-08-04T15:49:55.111Z,102175.30
2018-08-04T15:52:24.226Z,102174.83
2018-08-04T15:54:53.211Z,102179.53
2018-08-04T15:57:22.418Z,102183.32
2018-08-04T15:59:51.509Z,102181.61
2018-08-04T16:02:20.594Z,102161.17
2018-08-04T16:04:49.619Z,102187.33
2018-08-04T16:07:18.676Z,102177.80
2018-08-04T16:09:47.648Z,102178.64
2018-08-04T16:12:16.768Z,102175.32
2018-08-04T16:14:45.753Z,102171.41
2018-08-04T16:17:14.736Z,102187.78
2018-08-04T16:19:43.741Z,102174.80
2018-08-04T16:22:13.681Z,102188.30
2018-08-04T16:24:42.876Z,102181.45
2018-08-04T16:27:12.453Z,102198.58
2018-08-04T16:29:41.612Z,102201.17
2018-08-04T16:32:10.639Z,102196.89
2018-08-04T16:34:39.649Z,102209.15
2018-08-04T16:37:08.661Z,102202.30
2018-08-04T16:39:37.735Z,102203.41
2018-08-04T16:42:06.720Z,102197.11
2018-08-04T16:44:35.743Z,102199.18
2018-08-04T16:47:05.839Z,102204.52
2018-08-04T16:49:34.847Z,102204.55
2018-08-04T16:52:03.827Z,102194.30
2018-08-04T16:54:32.877Z,102199.86
2018-08-04T16:57:01.864Z,102196.88
2018-08-04T16:59:30.918Z,102207.37
2018-08-04T17:02:00.173Z,102195.38
2018-08-04T17:04:29.147Z,102207.28
2018-08-04T17:06:58.130Z,102200.22
2018-08-04T17:09:27.120Z,102194.59
2018-08-04T17:11:56.188Z,102208.29
2018-08-04T17:14:25.211Z,102204.02
2018-08-04T17:16:54.365Z,102198.89
2018-08-04T17:19:23.356Z,102201.81
2018-08-04T17:21:52.400Z,102199.84
2018-08-04T17:24:21.554Z,102201.50
2018-08-04T17:26:51.018Z,102204.05
2018-08-04T17:29:20.804Z,102203.55
2018-08-04T17:31:50.076Z,102210.14
2018-08-04T17:34:19.226Z,102212.28
2018-08-04T17:36:48.296Z,102198.13
2018-08-04T17:39:17.252Z,102197.15
2018-08-04T17:41:46.274Z,102203.36
2018-08-04T17:44:15.377Z,102205.02
2018-08-04T17:46:44.368Z,102206.73
2018-08-04T17:49:13.429Z,102208.22
2018-08-04T17:51:42.426Z,102214.51
2018-08-04T17:54:11.413Z,102195.87
2018-08-04T17:56:40.377Z,102199.00
2018-08-04T17:59:09.414Z,102206.66
2018-08-04T18:01:38.400Z,102199.50
2018-08-04T18:04:13.042Z,102200.36
2018-08-04T18:06:44.882Z,102206.48
2018-08-04T18:09:13.856Z,102204.31
2018-08-04T18:11:42.843Z,102215.62
2018-08-04T18:14:11.809Z,102206.03
2018-08-04T18:16:40.964Z,102206.89
2018-08-04T18:19:10.065Z,102210.10
2018-08-04T18:21:39.266Z,102208.63
2018-08-04T18:24:08.354Z,102210.85
2018-08-04T18:26:37.445Z,102224.42
2018-08-04T18:29:06.478Z,102220.35
2018-08-04T18:31:35.452Z,102229.86
2018-08-04T18:34:04.420Z,102222.61
2018-08-04T18:36:33.431Z,102227.06
2018-08-04T18:39:02.400Z,102222.12
2018-08-04T18:41:31.414Z,102241.61
2018-08-04T18:44:00.494Z,102229.11
2018-08-04T18:46:29.480Z,102231.33
2018-08-04T18:48:58.672Z,102239.27
2018-08-04T18:51:27.732Z,102234.05
2018-08-04T18:53:57.234Z,102234.91
2018-08-04T18:56:26.324Z,102231.70
2018-08-04T18:58:55.287Z,102231.70
2018-08-04T19:01:24.412Z,102237.63
2018-08-04T19:03:53.376Z,102232.28
2018-08-04T19:06:22.458Z,102235.28
2018-08-04T19:08:51.445Z,102237.05
2018-08-04T19:11:20.440Z,102251.20
2018-08-04T19:13:49.457Z,102246.14
2018-08-04T19:16:18.456Z,102248.98
2018-08-04T19:18:47.659Z,102252.06
2018-08-04T19:21:16.669Z,102242.77
2018-08-04T19:23:45.614Z,102243.63
2018-08-04T19:26:14.718Z,102244.98
2018-08-04T19:28:43.989Z,102247.75
2018-08-04T19:31:13.143Z,102252.27
2018-08-04T19:33:42.228Z,102244.98
2018-08-04T19:36:11.269Z,102248.24
2018-08-04T19:38:40.523Z,102253.67
2018-08-04T19:41:09.539Z,102250.96
2018-08-04T19:43:38.805Z,102251.83
2018-08-04T19:46:08.271Z,102260.95
2018-08-04T19:48:37.447Z,102259.22
2018-08-04T19:51:06.498Z,102267.73
2018-08-04T19:53:35.538Z,102262.02
2018-08-04T19:56:04.583Z,102260.17
2018-08-04T19:58:33.628Z,102260.17
2018-08-04T20:01:02.715Z,102258.44
2018-08-04T20:03:31.767Z,102267.94
2018-08-04T20:06:00.871Z,102267.83
2018-08-04T20:08:29.903Z,102266.47
2018-08-04T20:10:59.075Z,102268.72
2018-08-04T20:13:28.055Z,102264.65
2018-08-04T20:15:57.067Z,102264.23
2018-08-04T20:18:26.124Z,102260.66
2018-08-04T20:20:55.151Z,102262.39
2018-08-04T20:23:24.123Z,102266.09
2018-08-04T20:25:53.127Z,102270.24
2018-08-04T20:28:22.295Z,102266.17
2018-08-04T20:30:51.359Z,102270.73
2018-08-04T20:33:20.468Z,102271.60
2018-08-04T20:35:49.451Z,102275.30
2018-08-04T20:38:18.519Z,102270.93
2018-08-04T20:40:47.531Z,102284.48
2018-08-04T20:43:16.594Z,102283.05
2018-08-04T20:45:45.672Z,102284.98
2018-08-04T20:48:16.435Z,102283.99
2018-08-04T20:50:45.417Z,102281.55
2018-08-04T20:53:14.402Z,102279.22
2018-08-04T20:55:43.398Z,102279.95
2018-08-04T20:58:12.412Z,102277.30
2018-08-04T21:00:43.189Z,102286.04
2018-08-04T21:03:13.010Z,102283.50
2018-08-04T21:05:42.198Z,102286.33
2018-08-04T21:08:11.235Z,102294.65
2018-08-04T21:10:40.356Z,102292.80
2018-08-04T21:13:09.960Z,102298.56
2018-08-04T21:15:39.044Z,102285.13
2018-08-04T21:18:08.170Z,102292.31
2018-08-04T21:20:37.243Z,102293.66
2018-08-04T21:23:06.628Z,102299.86
2018-08-04T21:25:35.735Z,102295.25
2018-08-04T21:28:04.714Z,102291.51
2018-08-04T21:30:33.834Z,102288.14
2018-08-04T21:35:31.095Z,102289.43
2018-08-04T21:38:00.162Z,102296.77
2018-08-04T21:40:29.272Z,102298.76
2018-08-04T21:42:58.282Z,102301.30
2018-08-04T21:45:27.370Z,102285.65
2018-08-04T21:47:56.458Z,102288.46
2018-08-04T21:50:25.598Z,102285.13
2018-08-04T21:52:54.766Z,102294.61
2018-08-04T21:55:23.933Z,102285.94
2018-08-04T21:57:52.943Z,102289.85
2018-08-04T22:00:21.956Z,102291.44
2018-08-04T22:02:57.072Z,102298.85
2018-08-04T22:05:26.767Z,102292.06
2018-08-04T22:09:04.931Z,102295.52
2018-08-04T22:11:33.890Z,102296.45
2018-08-04T22:14:02.970Z,102298.83
2018-08-04T22:16:31.953Z,102298.67
2018-08-04T22:19:00.991Z,102293.27
2018-08-04T22:21:30.082Z,102297.48
2018-08-04T22:23:59.162Z,102290.65
2018-08-04T22:26:28.283Z,102285.70
2018-08-04T22:28:57.396Z,102291.67
2018-08-04T22:31:26.351Z,102281.01
2018-08-04T22:33:55.359Z,102281.98
2018-08-04T22:36:24.566Z,102285.84
2018-08-04T22:38:53.543Z,102281.95
2018-08-04T22:41:22.645Z,102290.54
2018-08-04T22:43:51.770Z,102284.78
2018-08-04T22:46:21.741Z,102286.91
2018-08-04T22:48:51.930Z,102287.62
2018-08-04T22:51:29.450Z,102284.20
2018-08-04T22:53:58.554Z,102287.00
2018-08-04T22:56:27.618Z,102291.92
2018-08-04T22:58:56.675Z,102291.41
2018-08-04T23:01:25.659Z,102288.11
2018-08-04T23:03:54.673Z,102286.92
2018-08-04T23:06:23.629Z,102286.06
2018-08-04T23:08:52.612Z,102289.02
2018-08-04T23:11:21.611Z,102287.30
2018-08-04T23:13:50.722Z,102289.62
2018-08-04T23:16:19.812Z,102294.81
2018-08-04T23:18:48.795Z,102296.65
2018-08-04T23:21:17.780Z,102293.47
2018-08-04T23:23:46.858Z,102297.30
2018-08-04T23:26:15.854Z,102302.55
2018-08-04T23:28:44.871Z,102301.62
2018-08-04T23:31:14.050Z,102300.16
2018-08-04T23:33:43.010Z,102306.16
2018-08-04T23:36:11.989Z,102309.83
2018-08-04T23:38:41.069Z,102302.59
2018-08-04T23:41:10.047Z,102301.89
2018-08-04T23:43:39.155Z,102300.66
2018-08-04T23:46:08.140Z,102302.27
2018-08-04T23:48:37.129Z,102304.06
2018-08-04T23:51:06.123Z,102303.50
2018-08-04T23:53:35.094Z,102300.97
2018-08-04T23:56:04.134Z,102307.23
2018-08-04T23:58:33.214Z,102312.75
